sensor_id;sensor_type;location;lat;lon;timestamp;P1;durP1;ratioP1;P2;durP2;ratioP2
22768;SDS011;13001;51.968;5.918;2022-11-12T00:00:14;665.73;;;607.35;;
22768;SDS011;13001;51.968;5.918;2022-11-12T00:02:41;700.10;;;638.15;;
22768;SDS011;13001;51.968;5.918;2022-11-12T00:05:08;702.02;;;641.25;;
22768;SDS011;13001;51.968;5.918;2022-11-12T00:07:36;683.58;;;624.65;;
22768;SDS011;13001;51.968;5.918;2022-11-12T00:10:03;696.25;;;637.75;;
22768;SDS011;13001;51.968;5.918;2022-11-12T00:12:31;717.48;;;657.67;;
22768;SDS011;13001;51.968;5.918;2022-11-12T00:14:58;670.65;;;617.90;;
22768;SDS011;13001;51.968;5.918;2022-11-12T00:17:25;631.10;;;583.00;;
22768;SDS011;13001;51.968;5.918;2022-11-12T00:19:53;678.12;;;623.95;;
22768;SDS011;13001;51.968;5.918;2022-11-12T00:22:20;723.80;;;665.12;;
22768;SDS011;13001;51.968;5.918;2022-11-12T00:24:48;669.37;;;618.52;;
22768;SDS011;13001;51.968;5.918;2022-11-12T00:27:15;659.27;;;609.50;;
22768;SDS011;13001;51.968;5.918;2022-11-12T00:29:42;661.35;;;610.92;;
22768;SDS011;13001;51.968;5.918;2022-11-12T00:32:09;653.42;;;603.75;;
22768;SDS011;13001;51.968;5.918;2022-11-12T00:34:37;662.90;;;612.55;;
22768;SDS011;13001;51.968;5.918;2022-11-12T00:37:04;652.42;;;603.45;;
22768;SDS011;13001;51.968;5.918;2022-11-12T00:39:32;674.60;;;623.08;;
22768;SDS011;13001;51.968;5.918;2022-11-12T00:41:59;663.35;;;613.12;;
22768;SDS011;13001;51.968;5.918;2022-11-12T00:44:26;671.27;;;619.80;;
22768;SDS011;13001;51.968;5.918;2022-11-12T00:46:55;670.90;;;617.85;;
22768;SDS011;13001;51.968;5.918;2022-11-12T00:49:24;682.27;;;627.78;;
22768;SDS011;13001;51.968;5.918;2022-11-12T00:51:51;663.80;;;611.40;;
22768;SDS011;13001;51.968;5.918;2022-11-12T00:54:18;655.40;;;604.80;;
22768;SDS011;13001;51.968;5.918;2022-11-12T00:56:46;665.58;;;613.80;;
22768;SDS011;13001;51.968;5.918;2022-11-12T00:59:13;678.83;;;627.75;;
22768;SDS011;13001;51.968;5.918;2022-11-12T01:01:41;669.15;;;618.60;;
22768;SDS011;13001;51.968;5.918;2022-11-12T01:04:08;668.85;;;617.90;;
22768;SDS011;13001;51.968;5.918;2022-11-12T01:06:37;684.45;;;628.70;;
22768;SDS011;13001;51.968;5.918;2022-11-12T01:09:04;745.65;;;679.87;;
22768;SDS011;13001;51.968;5.918;2022-11-12T01:11:31;726.22;;;665.23;;
22768;SDS011;13001;51.968;5.918;2022-11-12T01:14:00;660.00;;;608.87;;
22768;SDS011;13001;51.968;5.918;2022-11-12T01:16:29;635.80;;;588.00;;
22768;SDS011;13001;51.968;5.918;2022-11-12T01:18:57;643.70;;;594.90;;
22768;SDS011;13001;51.968;5.918;2022-11-12T01:21:27;694.28;;;636.83;;
22768;SDS011;13001;51.968;5.918;2022-11-12T01:23:55;721.25;;;658.87;;
22768;SDS011;13001;51.968;5.918;2022-11-12T01:26:23;647.87;;;596.85;;
22768;SDS011;13001;51.968;5.918;2022-11-12T01:28:50;683.07;;;629.12;;
22768;SDS011;13001;51.968;5.918;2022-11-12T01:31:19;657.53;;;607.63;;
22768;SDS011;13001;51.968;5.918;2022-11-12T01:33:47;694.53;;;639.37;;
22768;SDS011;13001;51.968;5.918;2022-11-12T01:36:16;644.88;;;595.57;;
22768;SDS011;13001;51.968;5.918;2022-11-12T01:38:44;663.50;;;611.70;;
22768;SDS011;13001;51.968;5.918;2022-11-12T01:41:17;682.60;;;626.65;;
22768;SDS011;13001;51.968;5.918;2022-11-12T01:43:40;656.05;;;606.23;;
22768;SDS011;13001;51.968;5.918;2022-11-12T01:46:19;661.47;;;609.63;;
22768;SDS011;13001;51.968;5.918;2022-11-12T01:48:47;675.90;;;621.07;;
22768;SDS011;13001;51.968;5.918;2022-11-12T01:51:14;688.43;;;631.00;;
22768;SDS011;13001;51.968;5.918;2022-11-12T01:53:43;648.52;;;599.20;;
22768;SDS011;13001;51.968;5.918;2022-11-12T01:56:10;680.25;;;627.70;;
22768;SDS011;13001;51.968;5.918;2022-11-12T01:58:38;667.42;;;614.80;;
22768;SDS011;13001;51.968;5.918;2022-11-12T02:01:06;681.55;;;627.75;;
22768;SDS011;13001;51.968;5.918;2022-11-12T02:03:33;675.45;;;622.87;;
22768;SDS011;13001;51.968;5.918;2022-11-12T02:06:05;673.02;;;620.55;;
22768;SDS011;13001;51.968;5.918;2022-11-12T02:08:29;711.33;;;648.88;;
22768;SDS011;13001;51.968;5.918;2022-11-12T02:10:57;727.42;;;663.77;;
22768;SDS011;13001;51.968;5.918;2022-11-12T02:13:24;651.40;;;600.30;;
22768;SDS011;13001;51.968;5.918;2022-11-12T02:16:09;699.48;;;645.00;;
22768;SDS011;13001;51.968;5.918;2022-11-12T02:18:37;702.13;;;646.12;;
22768;SDS011;13001;51.968;5.918;2022-11-12T02:21:05;709.70;;;650.95;;
22768;SDS011;13001;51.968;5.918;2022-11-12T02:23:33;714.80;;;654.50;;
22768;SDS011;13001;51.968;5.918;2022-11-12T02:26:00;717.80;;;657.70;;
22768;SDS011;13001;51.968;5.918;2022-11-12T02:28:27;714.75;;;652.97;;
22768;SDS011;13001;51.968;5.918;2022-11-12T02:30:56;706.27;;;644.62;;
22768;SDS011;13001;51.968;5.918;2022-11-12T02:33:23;701.33;;;639.63;;
22768;SDS011;13001;51.968;5.918;2022-11-12T02:35:51;709.87;;;648.30;;
22768;SDS011;13001;51.968;5.918;2022-11-12T02:38:19;707.95;;;648.15;;
22768;SDS011;13001;51.968;5.918;2022-11-12T02:40:46;710.67;;;653.73;;
22768;SDS011;13001;51.968;5.918;2022-11-12T02:43:13;684.30;;;630.10;;
22768;SDS011;13001;51.968;5.918;2022-11-12T02:45:41;685.78;;;631.92;;
22768;SDS011;13001;51.968;5.918;2022-11-12T02:48:08;692.48;;;636.58;;
22768;SDS011;13001;51.968;5.918;2022-11-12T02:50:35;701.27;;;645.42;;
22768;SDS011;13001;51.968;5.918;2022-11-12T02:53:02;684.25;;;630.08;;
22768;SDS011;13001;51.968;5.918;2022-11-12T02:55:30;700.33;;;645.40;;
22768;SDS011;13001;51.968;5.918;2022-11-12T02:57:57;716.67;;;660.60;;
22768;SDS011;13001;51.968;5.918;2022-11-12T03:00:25;715.67;;;658.65;;
22768;SDS011;13001;51.968;5.918;2022-11-12T03:02:52;699.75;;;644.08;;
22768;SDS011;13001;51.968;5.918;2022-11-12T03:05:27;704.77;;;648.83;;
22768;SDS011;13001;51.968;5.918;2022-11-12T03:07:55;702.80;;;647.87;;
22768;SDS011;13001;51.968;5.918;2022-11-12T03:10:24;649.23;;;599.55;;
22768;SDS011;13001;51.968;5.918;2022-11-12T03:12:52;648.28;;;599.10;;
22768;SDS011;13001;51.968;5.918;2022-11-12T03:15:19;690.55;;;637.15;;
22768;SDS011;13001;51.968;5.918;2022-11-12T03:17:46;690.73;;;637.80;;
22768;SDS011;13001;51.968;5.918;2022-11-12T03:20:20;699.73;;;645.25;;
22768;SDS011;13001;51.968;5.918;2022-11-12T03:25:25;660.58;;;610.83;;
22768;SDS011;13001;51.968;5.918;2022-11-12T03:27:59;626.97;;;579.70;;
22768;SDS011;13001;51.968;5.918;2022-11-12T03:30:27;614.70;;;568.17;;
22768;SDS011;13001;51.968;5.918;2022-11-12T03:32:54;656.20;;;606.83;;
22768;SDS011;13001;51.968;5.918;2022-11-12T03:35:22;612.88;;;567.37;;
22768;SDS011;13001;51.968;5.918;2022-11-12T03:37:49;643.75;;;595.73;;
22768;SDS011;13001;51.968;5.918;2022-11-12T03:40:17;671.90;;;621.50;;
22768;SDS011;13001;51.968;5.918;2022-11-12T03:42:48;710.37;;;654.95;;
22768;SDS011;13001;51.968;5.918;2022-11-12T03:45:15;712.58;;;652.78;;
22768;SDS011;13001;51.968;5.918;2022-11-12T03:47:43;685.75;;;624.95;;
22768;SDS011;13001;51.968;5.918;2022-11-12T03:50:11;696.92;;;635.78;;
22768;SDS011;13001;51.968;5.918;2022-11-12T03:52:42;690.25;;;629.50;;
22768;SDS011;13001;51.968;5.918;2022-11-12T03:55:07;696.85;;;636.33;;
22768;SDS011;13001;51.968;5.918;2022-11-12T03:57:35;692.27;;;632.27;;
22768;SDS011;13001;51.968;5.918;2022-11-12T04:00:03;694.40;;;633.83;;
22768;SDS011;13001;51.968;5.918;2022-11-12T04:02:31;690.47;;;629.85;;
22768;SDS011;13001;51.968;5.918;2022-11-12T04:04:58;706.90;;;644.73;;
22768;SDS011;13001;51.968;5.918;2022-11-12T04:07:44;693.67;;;632.17;;
22768;SDS011;13001;51.968;5.918;2022-11-12T04:10:29;709.45;;;646.77;;
22768;SDS011;13001;51.968;5.918;2022-11-12T04:12:58;698.23;;;637.62;;
22768;SDS011;13001;51.968;5.918;2022-11-12T04:15:43;693.55;;;633.55;;
22768;SDS011;13001;51.968;5.918;2022-11-12T04:18:12;698.50;;;639.95;;
22768;SDS011;13001;51.968;5.918;2022-11-12T04:20:57;692.05;;;637.98;;
22768;SDS011;13001;51.968;5.918;2022-11-12T04:23:42;693.70;;;637.35;;
22768;SDS011;13001;51.968;5.918;2022-11-12T04:26:10;671.67;;;621.08;;
22768;SDS011;13001;51.968;5.918;2022-11-12T04:28:49;713.10;;;655.92;;
22768;SDS011;13001;51.968;5.918;2022-11-12T04:31:34;687.00;;;633.85;;
22768;SDS011;13001;51.968;5.918;2022-11-12T04:34:02;648.30;;;598.47;;
22768;SDS011;13001;51.968;5.918;2022-11-12T04:36:37;644.37;;;593.92;;
22768;SDS011;13001;51.968;5.918;2022-11-12T04:39:04;674.52;;;622.10;;
22768;SDS011;13001;51.968;5.918;2022-11-12T04:41:31;711.83;;;655.75;;
22768;SDS011;13001;51.968;5.918;2022-11-12T04:44:17;709.55;;;650.22;;
22768;SDS011;13001;51.968;5.918;2022-11-12T04:47:02;704.42;;;643.50;;
22768;SDS011;13001;51.968;5.918;2022-11-12T04:49:29;699.60;;;641.40;;
22768;SDS011;13001;51.968;5.918;2022-11-12T04:51:56;700.08;;;641.77;;
22768;SDS011;13001;51.968;5.918;2022-11-12T04:54:30;703.40;;;646.17;;
22768;SDS011;13001;51.968;5.918;2022-11-12T04:56:57;721.90;;;663.22;;
22768;SDS011;13001;51.968;5.918;2022-11-12T04:59:24;714.83;;;658.37;;
22768;SDS011;13001;51.968;5.918;2022-11-12T05:01:52;739.90;;;681.25;;
22768;SDS011;13001;51.968;5.918;2022-11-12T05:04:19;715.47;;;658.90;;
22768;SDS011;13001;51.968;5.918;2022-11-12T05:06:47;703.42;;;647.87;;
22768;SDS011;13001;51.968;5.918;2022-11-12T05:09:17;701.40;;;646.98;;
22768;SDS011;13001;51.968;5.918;2022-11-12T05:11:45;717.22;;;660.50;;
22768;SDS011;13001;51.968;5.918;2022-11-12T05:14:12;735.52;;;676.48;;
22768;SDS011;13001;51.968;5.918;2022-11-12T05:16:40;715.70;;;659.48;;
22768;SDS011;13001;51.968;5.918;2022-11-12T05:19:07;719.45;;;661.42;;
22768;SDS011;13001;51.968;5.918;2022-11-12T05:21:34;719.77;;;661.55;;
22768;SDS011;13001;51.968;5.918;2022-11-12T05:24:19;715.23;;;658.60;;
22768;SDS011;13001;51.968;5.918;2022-11-12T05:26:47;717.25;;;660.25;;
22768;SDS011;13001;51.968;5.918;2022-11-12T05:29:14;713.27;;;656.97;;
22768;SDS011;13001;51.968;5.918;2022-11-12T05:31:41;710.45;;;654.58;;
22768;SDS011;13001;51.968;5.918;2022-11-12T05:34:09;705.73;;;649.30;;
22768;SDS011;13001;51.968;5.918;2022-11-12T05:36:36;694.58;;;639.13;;
22768;SDS011;13001;51.968;5.918;2022-11-12T05:39:03;691.92;;;637.10;;
22768;SDS011;13001;51.968;5.918;2022-11-12T05:41:31;704.23;;;649.23;;
22768;SDS011;13001;51.968;5.918;2022-11-12T05:43:59;694.50;;;640.33;;
22768;SDS011;13001;51.968;5.918;2022-11-12T05:46:26;689.37;;;635.33;;
22768;SDS011;13001;51.968;5.918;2022-11-12T05:48:54;705.67;;;649.92;;
22768;SDS011;13001;51.968;5.918;2022-11-12T05:51:21;719.62;;;663.05;;
22768;SDS011;13001;51.968;5.918;2022-11-12T05:53:48;682.73;;;628.83;;
22768;SDS011;13001;51.968;5.918;2022-11-12T05:56:15;652.60;;;601.92;;
22768;SDS011;13001;51.968;5.918;2022-11-12T05:58:43;658.15;;;605.67;;
22768;SDS011;13001;51.968;5.918;2022-11-12T06:01:10;677.97;;;623.58;;
22768;SDS011;13001;51.968;5.918;2022-11-12T06:03:37;649.23;;;598.35;;
22768;SDS011;13001;51.968;5.918;2022-11-12T06:06:05;684.13;;;630.42;;
22768;SDS011;13001;51.968;5.918;2022-11-12T06:08:32;687.15;;;633.40;;
22768;SDS011;13001;51.968;5.918;2022-11-12T06:10:59;667.10;;;615.00;;
22768;SDS011;13001;51.968;5.918;2022-11-12T06:13:26;669.35;;;616.67;;
22768;SDS011;13001;51.968;5.918;2022-11-12T06:15:54;651.37;;;600.83;;
22768;SDS011;13001;51.968;5.918;2022-11-12T06:18:21;662.90;;;611.42;;
22768;SDS011;13001;51.968;5.918;2022-11-12T06:20:49;639.95;;;590.83;;
22768;SDS011;13001;51.968;5.918;2022-11-12T06:23:35;646.87;;;595.55;;
22768;SDS011;13001;51.968;5.918;2022-11-12T06:26:02;650.62;;;597.40;;
22768;SDS011;13001;51.968;5.918;2022-11-12T06:28:29;631.27;;;581.45;;
22768;SDS011;13001;51.968;5.918;2022-11-12T06:30:57;656.47;;;604.67;;
22768;SDS011;13001;51.968;5.918;2022-11-12T06:33:24;670.75;;;616.67;;
22768;SDS011;13001;51.968;5.918;2022-11-12T06:36:03;651.60;;;599.15;;
22768;SDS011;13001;51.968;5.918;2022-11-12T06:38:35;640.90;;;590.33;;
22768;SDS011;13001;51.968;5.918;2022-11-12T06:41:03;639.30;;;589.15;;
22768;SDS011;13001;51.968;5.918;2022-11-12T06:43:31;649.52;;;598.50;;
22768;SDS011;13001;51.968;5.918;2022-11-12T06:46:05;648.53;;;597.10;;
22768;SDS011;13001;51.968;5.918;2022-11-12T06:48:33;697.80;;;642.75;;
22768;SDS011;13001;51.968;5.918;2022-11-12T06:51:16;652.42;;;601.00;;
22768;SDS011;13001;51.968;5.918;2022-11-12T06:53:44;662.70;;;610.30;;
22768;SDS011;13001;51.968;5.918;2022-11-12T06:56:12;662.62;;;609.87;;
22768;SDS011;13001;51.968;5.918;2022-11-12T06:58:39;641.13;;;590.30;;
22768;SDS011;13001;51.968;5.918;2022-11-12T07:01:08;681.42;;;626.55;;
22768;SDS011;13001;51.968;5.918;2022-11-12T07:03:39;661.38;;;607.77;;
22768;SDS011;13001;51.968;5.918;2022-11-12T07:06:08;659.22;;;606.27;;
22768;SDS011;13001;51.968;5.918;2022-11-12T07:08:36;678.85;;;623.73;;
22768;SDS011;13001;51.968;5.918;2022-11-12T07:11:04;739.47;;;674.30;;
22768;SDS011;13001;51.968;5.918;2022-11-12T07:13:33;710.42;;;649.45;;
22768;SDS011;13001;51.968;5.918;2022-11-12T07:16:01;708.90;;;648.47;;
22768;SDS011;13001;51.968;5.918;2022-11-12T07:18:28;725.02;;;661.62;;
22768;SDS011;13001;51.968;5.918;2022-11-12T07:21:04;735.15;;;669.10;;
22768;SDS011;13001;51.968;5.918;2022-11-12T07:23:26;727.67;;;662.72;;
22768;SDS011;13001;51.968;5.918;2022-11-12T07:25:55;793.45;;;725.75;;
22768;SDS011;13001;51.968;5.918;2022-11-12T07:28:23;759.50;;;699.02;;
22768;SDS011;13001;51.968;5.918;2022-11-12T07:30:54;752.25;;;684.40;;
22768;SDS011;13001;51.968;5.918;2022-11-12T07:33:22;791.42;;;723.60;;
22768;SDS011;13001;51.968;5.918;2022-11-12T07:35:55;619.40;;;570.73;;
22768;SDS011;13001;51.968;5.918;2022-11-12T07:38:18;610.08;;;565.47;;
22768;SDS011;13001;51.968;5.918;2022-11-12T07:40:45;309.35;;;288.02;;
22768;SDS011;13001;51.968;5.918;2022-11-12T07:43:12;305.03;;;283.00;;
22768;SDS011;13001;51.968;5.918;2022-11-12T07:45:40;376.05;;;348.65;;
22768;SDS011;13001;51.968;5.918;2022-11-12T07:48:07;416.12;;;383.32;;
22768;SDS011;13001;51.968;5.918;2022-11-12T07:50:34;452.13;;;416.68;;
22768;SDS011;13001;51.968;5.918;2022-11-12T07:53:02;509.37;;;470.80;;
22768;SDS011;13001;51.968;5.918;2022-11-12T07:55:29;523.33;;;483.23;;
22768;SDS011;13001;51.968;5.918;2022-11-12T07:58:01;648.45;;;600.77;;
22768;SDS011;13001;51.968;5.918;2022-11-12T08:00:25;549.17;;;503.58;;
22768;SDS011;13001;51.968;5.918;2022-11-12T08:02:52;418.45;;;382.43;;
22768;SDS011;13001;51.968;5.918;2022-11-12T08:05:22;260.75;;;239.63;;
22768;SDS011;13001;51.968;5.918;2022-11-12T08:07:48;186.27;;;171.60;;
22768;SDS011;13001;51.968;5.918;2022-11-12T08:10:15;199.10;;;186.30;;
22768;SDS011;13001;51.968;5.918;2022-11-12T08:12:43;234.90;;;220.73;;
22768;SDS011;13001;51.968;5.918;2022-11-12T08:15:10;280.50;;;263.98;;
22768;SDS011;13001;51.968;5.918;2022-11-12T08:17:38;435.93;;;407.45;;
22768;SDS011;13001;51.968;5.918;2022-11-12T08:20:05;455.05;;;425.00;;
22768;SDS011;13001;51.968;5.918;2022-11-12T08:22:33;380.98;;;355.95;;
22768;SDS011;13001;51.968;5.918;2022-11-12T08:25:00;289.93;;;271.25;;
22768;SDS011;13001;51.968;5.918;2022-11-12T08:27:27;294.75;;;275.77;;
22768;SDS011;13001;51.968;5.918;2022-11-12T08:29:55;309.00;;;289.33;;
22768;SDS011;13001;51.968;5.918;2022-11-12T08:32:22;287.47;;;269.20;;
22768;SDS011;13001;51.968;5.918;2022-11-12T08:34:49;304.15;;;284.52;;
22768;SDS011;13001;51.968;5.918;2022-11-12T08:37:17;322.40;;;301.20;;
22768;SDS011;13001;51.968;5.918;2022-11-12T08:39:44;314.02;;;293.63;;
22768;SDS011;13001;51.968;5.918;2022-11-12T08:42:11;367.02;;;343.02;;
22768;SDS011;13001;51.968;5.918;2022-11-12T08:44:38;298.70;;;279.40;;
22768;SDS011;13001;51.968;5.918;2022-11-12T08:47:06;293.48;;;274.67;;
22768;SDS011;13001;51.968;5.918;2022-11-12T08:49:33;304.38;;;284.77;;
22768;SDS011;13001;51.968;5.918;2022-11-12T08:52:00;299.92;;;280.32;;
22768;SDS011;13001;51.968;5.918;2022-11-12T08:54:27;306.55;;;286.40;;
22768;SDS011;13001;51.968;5.918;2022-11-12T08:56:55;307.27;;;287.35;;
22768;SDS011;13001;51.968;5.918;2022-11-12T08:59:22;315.60;;;295.52;;
22768;SDS011;13001;51.968;5.918;2022-11-12T09:01:50;307.85;;;288.00;;
22768;SDS011;13001;51.968;5.918;2022-11-12T09:04:17;386.65;;;361.65;;
22768;SDS011;13001;51.968;5.918;2022-11-12T09:06:44;297.85;;;278.83;;
22768;SDS011;13001;51.968;5.918;2022-11-12T09:09:11;327.70;;;306.68;;
22768;SDS011;13001;51.968;5.918;2022-11-12T09:11:39;398.93;;;373.18;;
22768;SDS011;13001;51.968;5.918;2022-11-12T09:14:06;499.18;;;466.73;;
22768;SDS011;13001;51.968;5.918;2022-11-12T09:16:33;527.92;;;493.73;;
22768;SDS011;13001;51.968;5.918;2022-11-12T09:19:00;526.77;;;492.98;;
22768;SDS011;13001;51.968;5.918;2022-11-12T09:21:28;407.73;;;382.77;;
22768;SDS011;13001;51.968;5.918;2022-11-12T09:23:56;355.77;;;332.03;;
22768;SDS011;13001;51.968;5.918;2022-11-12T09:26:23;351.05;;;324.80;;
22768;SDS011;13001;51.968;5.918;2022-11-12T09:28:51;321.45;;;299.12;;
22768;SDS011;13001;51.968;5.918;2022-11-12T09:31:20;275.15;;;257.07;;
22768;SDS011;13001;51.968;5.918;2022-11-12T09:33:47;325.70;;;302.57;;
